Time;durP1;ratioP1;P1;durP2;ratioP2;P2;SDS_P1;SDS_P2;PMS_P1;PMS_P2;Temp;Humidity;BMP_temperature;BMP_pressure;BME280_temperature;BME280_humidity;BME280_pressure;Samples;Min_cycle;Max_cycle;Signal;HPM_P1;HPM_P2
2022/11/14 00:00:32;;;;;;;26.20;14.50;;;5.70;84.20;;;;;;4993894;28;20037;-49
2022/11/14 00:03:02;;;;;;;25.20;15.38;;;5.60;84.30;;;;;;4993934;28;20475;-50
2022/11/14 00:05:27;;;;;;;26.47;15.07;;;5.70;84.40;;;;;;4993633;28;20411;-51
2022/11/14 00:07:53;;;;;;;24.60;14.35;;;5.60;84.50;;;;;;4992536;28;20026;-51
2022/11/14 00:10:19;;;;;;;26.48;15.07;;;5.60;84.60;;;;;;4994111;28;20029;-50
2022/11/14 00:12:45;;;;;;;29.35;15.32;;;5.50;84.60;;;;;;4993822;28;20030;-48
2022/11/14 00:15:12;;;;;;;24.98;15.73;;;5.50;84.70;;;;;;4993848;28;20118;-51
2022/11/14 00:17:37;;;;;;;28.35;16.48;;;5.50;84.70;;;;;;4994055;28;20034;-49
2022/11/14 00:20:05;;;;;;;32.95;15.93;;;5.50;84.80;;;;;;4993716;28;20033;-50
2022/11/14 00:22:31;;;;;;;30.63;15.60;;;5.50;84.90;;;;;;4993618;28;20026;-48
2022/11/14 00:24:57;;;;;;;25.10;15.68;;;5.50;84.90;;;;;;4993660;28;20112;-49
2022/11/14 00:27:23;;;;;;;23.67;15.73;;;5.40;85.00;;;;;;4995036;28;20097;-50
2022/11/14 00:29:48;;;;;;;29.10;15.52;;;5.30;84.80;;;;;;4997899;28;20093;-51
2022/11/14 00:32:14;;;;;;;26.40;14.77;;;5.30;85.30;;;;;;4997918;28;20532;-50
2022/11/14 00:34:40;;;;;;;26.88;15.43;;;5.30;85.40;;;;;;4997705;28;20550;-48
2022/11/14 00:37:05;;;;;;;26.27;14.45;;;5.20;85.30;;;;;;4997674;28;20049;-48
2022/11/14 00:39:31;;;;;;;27.58;15.82;;;5.30;85.80;;;;;;4997590;28;20033;-49
2022/11/14 00:41:56;;;;;;;28.33;16.08;;;5.30;85.50;;;;;;4996339;28;20065;-47
2022/11/14 00:44:22;;;;;;;25.10;14.32;;;5.20;85.60;;;;;;4997472;28;20038;-51
2022/11/14 00:46:48;;;;;;;26.80;15.48;;;5.10;85.80;;;;;;4997939;28;20109;-49
2022/11/14 00:49:13;;;;;;;27.42;15.57;;;5.10;85.80;;;;;;4996138;28;20475;-49
2022/11/14 00:51:39;;;;;;;25.33;15.80;;;5.10;86.00;;;;;;4997391;28;20054;-48
2022/11/14 00:54:05;;;;;;;30.45;17.20;;;5.10;85.90;;;;;;4997320;28;20033;-53
2022/11/14 00:56:30;;;;;;;22.38;14.23;;;5.10;86.00;;;;;;4997643;28;20026;-48
2022/11/14 00:58:56;;;;;;;33.40;16.40;;;5.00;86.00;;;;;;4996321;28;20030;-51
2022/11/14 01:01:21;;;;;;;25.67;14.90;;;5.00;86.20;;;;;;4997334;28;20027;-49
2022/11/14 01:03:51;;;;;;;26.25;15.20;;;5.00;86.10;;;;;;4997615;28;20479;-50
2022/11/14 01:06:18;;;;;;;27.43;15.03;;;5.00;86.10;;;;;;4996986;28;20050;-50
2022/11/14 01:08:44;;;;;;;28.27;16.08;;;4.90;86.20;;;;;;4979881;28;20061;-50
2022/11/14 01:11:12;;;;;;;28.90;14.43;;;5.00;86.40;;;;;;4997543;28;20479;-51
2022/11/14 01:13:38;;;;;;;26.55;15.52;;;4.90;86.40;;;;;;4996949;28;20022;-48
2022/11/14 01:16:05;;;;;;;27.45;14.60;;;5.10;86.10;;;;;;4997185;28;20034;-50
2022/11/14 01:18:31;;;;;;;28.83;14.80;;;5.20;85.90;;;;;;4996805;28;20039;-51
2022/11/14 01:20:57;;;;;;;29.33;15.75;;;5.10;85.80;;;;;;4995499;28;20034;-52
2022/11/14 01:23:23;;;;;;;28.75;15.15;;;5.10;85.90;;;;;;4996617;28;20034;-49
2022/11/14 01:25:49;;;;;;;35.67;17.15;;;5.00;85.80;;;;;;4996489;28;20536;-50
2022/11/14 01:28:18;;;;;;;32.15;17.98;;;4.90;86.00;;;;;;4996525;28;20022;-49
2022/11/14 01:30:43;;;;;;;32.60;17.60;;;4.90;86.00;;;;;;4996486;28;20027;-50
2022/11/14 01:33:09;;;;;;;26.50;15.60;;;4.90;86.40;;;;;;4996575;28;20356;-51
2022/11/14 01:35:37;;;;;;;26.63;15.45;;;4.80;86.40;;;;;;4996512;28;20037;-48
2022/11/14 01:38:04;;;;;;;30.42;17.20;;;4.80;86.40;;;;;;4994524;28;20042;-55
2022/11/14 01:40:30;;;;;;;35.30;18.13;;;4.70;86.70;;;;;;4996281;28;20076;-50
2022/11/14 01:43:15;;;;;;;31.73;17.77;;;4.70;87.00;;;;;;4996462;28;20379;-50
2022/11/14 01:45:52;;;;;;;31.70;17.75;;;4.70;87.20;;;;;;4996434;28;20530;-52
2022/11/14 01:48:33;;;;;;;28.15;16.88;;;4.60;87.20;;;;;;4996083;28;20029;-50
2022/11/14 01:51:17;;;;;;;38.05;18.63;;;4.60;87.40;;;;;;4996354;28;20026;-50
2022/11/14 01:53:45;;;;;;;31.85;17.80;;;4.60;87.30;;;;;;4996512;28;20022;-52
2022/11/14 01:56:15;;;;;;;37.88;17.83;;;4.60;87.30;;;;;;4996362;28;20034;-50
2022/11/14 01:58:46;;;;;;;32.85;17.60;;;4.60;87.20;;;;;;4996277;28;20157;-52
2022/11/14 02:01:12;;;;;;;31.65;16.98;;;4.60;87.30;;;;;;4994755;28;20026;-49
2022/11/14 02:03:41;;;;;;;27.55;15.73;;;4.60;87.30;;;;;;4995976;28;20033;-50
2022/11/14 02:06:10;;;;;;;30.05;17.23;;;4.60;87.20;;;;;;4995724;28;20133;-50
2022/11/14 02:08:36;;;;;;;30.55;15.30;;;4.50;87.30;;;;;;4995994;28;20018;-49
2022/11/14 02:11:02;;;;;;;31.50;16.25;;;4.50;87.40;;;;;;4994468;28;20089;-50
2022/11/14 02:13:27;;;;;;;36.92;17.02;;;4.60;87.20;;;;;;4995787;28;20509;-50
2022/11/14 02:15:53;;;;;;;27.90;15.65;;;4.60;87.40;;;;;;4995644;28;20053;-50
2022/11/14 02:18:19;;;;;;;32.08;15.70;;;4.60;87.30;;;;;;4995542;28;20085;-49
2022/11/14 02:20:44;;;;;;;31.25;17.20;;;4.70;87.30;;;;;;4995572;28;20446;-52
2022/11/14 02:23:10;;;;;;;27.30;15.68;;;4.60;87.20;;;;;;4995742;28;20018;-52
2022/11/14 02:25:37;;;;;;;27.75;16.48;;;4.60;87.30;;;;;;4995305;28;20050;-52
2022/11/14 02:28:04;;;;;;;29.52;15.02;;;4.50;87.40;;;;;;4995317;28;20030;-50
2022/11/14 02:30:30;;;;;;;26.75;17.00;;;4.50;87.50;;;;;;4995595;28;20023;-48
2022/11/14 02:32:56;;;;;;;25.88;15.30;;;4.50;87.50;;;;;;4995712;28;20475;-49
2022/11/14 02:35:21;;;;;;;26.00;15.88;;;4.60;87.70;;;;;;4995826;28;20018;-52
2022/11/14 02:37:47;;;;;;;30.55;15.80;;;4.60;87.00;;;;;;4995223;28;20030;-50
2022/11/14 02:40:12;;;;;;;25.15;15.90;;;4.50;87.10;;;;;;4995210;28;20490;-48
2022/11/14 02:42:38;;;;;;;29.75;16.10;;;4.40;87.30;;;;;;4995705;28;20101;-50
2022/11/14 02:45:04;;;;;;;31.33;16.38;;;4.50;87.20;;;;;;4994586;28;20033;-50
2022/11/14 02:47:30;;;;;;;30.52;17.77;;;4.50;87.10;;;;;;4993687;28;20120;-49
2022/11/14 02:49:56;;;;;;;32.13;16.67;;;4.50;87.30;;;;;;4993563;28;20166;-49
2022/11/14 02:52:21;;;;;;;34.90;16.33;;;4.40;87.30;;;;;;4994975;28;20028;-52
2022/11/14 02:54:47;;;;;;;30.27;17.58;;;4.30;87.50;;;;;;4993605;28;20022;-49
2022/11/14 02:57:12;;;;;;;35.20;17.42;;;4.30;87.70;;;;;;4993744;28;20503;-52
2022/11/14 02:59:38;;;;;;;37.35;18.30;;;4.30;87.80;;;;;;4994952;28;20117;-49
2022/11/14 03:02:04;;;;;;;34.63;17.75;;;4.20;87.80;;;;;;4995098;28;20061;-49
2022/11/14 03:04:29;;;;;;;28.25;16.63;;;4.20;87.90;;;;;;4994735;28;20034;-49
2022/11/14 03:06:55;;;;;;;37.00;17.55;;;4.10;88.00;;;;;;4977015;28;20518;-49
2022/11/14 03:09:20;;;;;;;28.50;16.48;;;4.00;88.20;;;;;;4994717;28;20058;-49
2022/11/14 03:11:46;;;;;;;28.13;17.00;;;4.10;88.20;;;;;;4994878;28;20088;-51
2022/11/14 03:14:12;;;;;;;35.45;19.45;;;4.00;88.20;;;;;;4994784;28;20086;-52
2022/11/14 03:16:37;;;;;;;33.35;18.58;;;4.00;88.20;;;;;;4994455;28;20022;-49
2022/11/14 03:19:03;;;;;;;39.03;18.05;;;3.90;88.40;;;;;;4994618;28;20045;-49
2022/11/14 03:21:29;;;;;;;36.45;18.48;;;3.90;88.40;;;;;;4994565;28;20034;-51
2022/11/14 03:23:54;;;;;;;33.50;16.80;;;3.80;88.30;;;;;;4994525;28;20030;-49
2022/11/14 03:26:20;;;;;;;31.50;16.55;;;3.80;88.60;;;;;;4994185;28;20041;-52
2022/11/14 03:28:45;;;;;;;36.00;17.60;;;3.80;88.70;;;;;;4992998;28;20019;-49
2022/11/14 03:31:12;;;;;;;30.58;17.27;;;3.90;88.60;;;;;;4994170;28;20019;-52
2022/11/14 03:33:37;;;;;;;30.33;17.00;;;3.90;88.50;;;;;;4994535;28;20036;-53
2022/11/14 03:36:04;;;;;;;33.70;17.10;;;3.80;88.40;;;;;;4994059;28;20034;-52
2022/11/14 03:38:31;;;;;;;30.75;16.15;;;3.80;88.50;;;;;;4994551;28;20092;-51
2022/11/14 03:41:00;;;;;;;32.78;17.20;;;3.80;88.80;;;;;;4994079;28;20479;-53
2022/11/14 03:43:30;;;;;;;38.63;17.35;;;3.80;88.40;;;;;;4992624;28;20030;-49
2022/11/14 03:46:00;;;;;;;27.63;16.65;;;3.80;88.50;;;;;;4992719;28;20023;-48
2022/11/14 03:48:26;;;;;;;31.70;18.42;;;3.80;88.50;;;;;;4994335;28;20049;-49
2022/11/14 03:50:52;;;;;;;37.15;19.67;;;3.90;88.20;;;;;;4994015;28;20015;-49
2022/11/14 03:53:18;;;;;;;27.85;16.50;;;3.80;88.00;;;;;;4993868;28;20175;-48
2022/11/14 03:55:43;;;;;;;39.15;18.23;;;3.80;88.10;;;;;;4994173;28;20061;-49
2022/11/14 03:58:09;;;;;;;37.55;18.02;;;3.70;88.20;;;;;;4994354;28;20022;-48
2022/11/14 04:00:35;;;;;;;34.25;19.10;;;3.70;88.40;;;;;;4994356;28;20049;-50
2022/11/14 04:03:00;;;;;;;31.88;17.05;;;3.60;88.40;;;;;;4994517;28;20027;-51
2022/11/14 04:05:26;;;;;;;31.80;17.85;;;3.60;88.50;;;;;;4994188;28;20077;-55
2022/11/14 04:07:52;;;;;;;32.53;18.35;;;3.60;88.50;;;;;;4994654;28;20030;-51
2022/11/14 04:10:17;;;;;;;32.45;17.40;;;3.60;88.60;;;;;;4995023;28;20026;-51
2022/11/14 04:12:51;;;;;;;31.48;18.15;;;3.60;88.30;;;;;;4994767;28;20022;-50
2022/11/14 04:15:18;;;;;;;28.40;17.45;;;3.60;88.40;;;;;;4994461;28;20391;-50
2022/11/14 04:17:45;;;;;;;34.78;18.27;;;3.70;88.40;;;;;;4993853;28;20474;-51
2022/11/14 04:20:12;;;;;;;29.65;16.80;;;3.70;88.20;;;;;;4994052;28;20057;-49
2022/11/14 04:22:38;;;;;;;31.92;17.88;;;3.70;88.10;;;;;;4993828;28;20023;-50
2022/11/14 04:25:04;;;;;;;37.30;17.42;;;3.70;88.20;;;;;;4993609;28;20549;-51
2022/11/14 04:27:30;;;;;;;37.05;17.08;;;3.70;88.20;;;;;;4993403;28;20451;-50
2022/11/14 04:29:56;;;;;;;34.75;17.13;;;3.70;88.00;;;;;;4993475;28;20030;-51
2022/11/14 04:32:21;;;;;;;34.55;16.83;;;3.60;88.10;;;;;;4993383;28;20105;-50
2022/11/14 04:34:47;;;;;;;32.72;16.42;;;3.70;88.10;;;;;;4993432;28;20026;-51
2022/11/14 04:37:13;;;;;;;38.63;18.17;;;3.70;88.00;;;;;;4993502;28;20101;-50
2022/11/14 04:39:38;;;;;;;36.40;19.63;;;3.60;87.90;;;;;;4992152;28;20026;-51
2022/11/14 04:42:04;;;;;;;31.15;18.13;;;3.60;87.90;;;;;;4993992;28;20031;-50
2022/11/14 04:44:29;;;;;;;33.50;18.23;;;3.60;88.10;;;;;;4992108;28;20626;-50
2022/11/14 04:46:56;;;;;;;29.33;16.63;;;3.50;88.10;;;;;;4993358;28;20035;-52
2022/11/14 04:49:22;;;;;;;30.17;16.80;;;3.50;87.90;;;;;;4992151;28;20054;-50
2022/11/14 04:51:47;;;;;;;37.13;19.27;;;3.50;87.90;;;;;;4993637;28;20077;-47
2022/11/14 04:54:13;;;;;;;30.90;16.67;;;3.50;88.20;;;;;;4993425;28;20485;-53
2022/11/14 04:56:39;;;;;;;33.90;19.08;;;3.40;88.30;;;;;;4993356;28;20049;-48
2022/11/14 04:59:05;;;;;;;30.58;16.83;;;3.40;88.40;;;;;;4993277;28;20026;-51
2022/11/14 05:01:30;;;;;;;31.67;17.48;;;3.40;88.60;;;;;;4993359;28;20038;-51
2022/11/14 05:03:56;;;;;;;35.08;18.88;;;3.50;88.20;;;;;;4993241;28;20033;-50
2022/11/14 05:06:21;;;;;;;40.15;20.75;;;3.40;88.40;;;;;;4993016;28;20046;-50
2022/11/14 05:08:47;;;;;;;35.20;18.15;;;3.30;88.40;;;;;;4993346;28;20026;-48
2022/11/14 05:11:17;;;;;;;31.63;16.90;;;3.30;88.60;;;;;;4993652;28;20073;-51
2022/11/14 05:13:43;;;;;;;38.50;18.98;;;3.30;88.70;;;;;;4994806;28;20064;-49
2022/11/14 05:16:10;;;;;;;37.13;17.25;;;3.30;88.70;;;;;;4997062;28;20065;-51
2022/11/14 05:18:36;;;;;;;29.80;16.65;;;3.30;88.80;;;;;;4996746;28;20026;-50
2022/11/14 05:21:02;;;;;;;33.28;19.15;;;3.30;88.50;;;;;;4996649;28;20111;-50
2022/11/14 05:23:28;;;;;;;32.38;17.92;;;3.30;88.30;;;;;;4996750;28;20034;-49
2022/11/14 05:26:06;;;;;;;40.28;18.92;;;3.30;88.20;;;;;;4996485;28;20034;-49
2022/11/14 05:28:32;;;;;;;35.58;19.70;;;3.30;88.40;;;;;;4996987;28;20014;-52
2022/11/14 05:31:13;;;;;;;36.42;18.00;;;3.30;88.40;;;;;;4996512;28;20042;-51
2022/11/14 05:33:39;;;;;;;35.53;17.90;;;3.20;88.30;;;;;;4996821;28;20025;-52
2022/11/14 05:36:08;;;;;;;36.42;19.83;;;3.20;88.70;;;;;;4996875;28;20471;-50
2022/11/14 05:38:34;;;;;;;28.58;16.45;;;3.20;88.70;;;;;;4996524;28;20364;-49
2022/11/14 05:41:08;;;;;;;31.42;17.15;;;3.20;88.70;;;;;;4996481;28;20114;-50
2022/11/14 05:43:34;;;;;;;34.20;17.38;;;3.20;88.60;;;;;;4996276;28;20057;-48
2022/11/14 05:46:05;;;;;;;39.03;18.00;;;3.20;88.50;;;;;;4996187;28;20081;-50
2022/11/14 05:48:31;;;;;;;34.22;17.30;;;3.10;88.50;;;;;;4996519;28;20097;-51
2022/11/14 05:50:58;;;;;;;34.65;17.85;;;3.10;88.70;;;;;;4996505;28;20057;-50
2022/11/14 05:53:25;;;;;;;37.20;16.80;;;3.10;88.80;;;;;;4996034;28;20022;-50
2022/11/14 05:55:51;;;;;;;34.90;18.30;;;3.10;88.90;;;;;;4996105;28;20037;-50
2022/11/14 05:58:17;;;;;;;30.00;15.65;;;3.00;88.90;;;;;;4995993;28;20030;-51
2022/11/14 06:00:43;;;;;;;33.38;18.05;;;3.00;89.10;;;;;;4995786;28;20520;-50
2022/11/14 06:03:08;;;;;;;37.35;19.08;;;3.10;88.80;;;;;;4996101;28;20110;-49
2022/11/14 06:05:35;;;;;;;36.22;18.23;;;3.10;88.60;;;;;;4995413;28;20050;-51
2022/11/14 06:08:01;;;;;;;29.63;16.50;;;3.10;88.80;;;;;;4995770;28;20026;-52
2022/11/14 06:10:27;;;;;;;34.33;19.55;;;3.10;88.80;;;;;;4996073;28;20073;-49
2022/11/14 06:12:53;;;;;;;29.08;15.93;;;3.10;88.60;;;;;;4995754;28;20475;-50
2022/11/14 06:15:19;;;;;;;37.13;17.67;;;3.10;88.60;;;;;;4995625;28;20519;-50
2022/11/14 06:17:45;;;;;;;34.95;16.35;;;3.20;88.50;;;;;;4995878;28;20101;-48
2022/11/14 06:20:14;;;;;;;33.95;18.83;;;3.00;88.60;;;;;;4995513;28;20027;-48
2022/11/14 06:22:41;;;;;;;30.52;15.57;;;3.10;88.60;;;;;;4995698;28;20431;-49
2022/11/14 06:25:07;;;;;;;27.75;16.10;;;3.10;88.60;;;;;;4995807;28;20023;-48
2022/11/14 12:09:00;;;;;;;25.65;12.50;;;9.80;73.50;;;;;;5111814;27;20100;-62
2022/11/14 12:11:29;;;;;;;20.48;12.65;;;10.10;72.70;;;;;;5111527;28;20032;-63
2022/11/14 15:54:47;;;;;;;30.40;10.68;;;9.90;76.50;;;;;;5028036;28;20817;-61
2022/11/14 15:57:16;;;;;;;18.88;11.40;;;10.00;76.40;;;;;;5026998;28;20026;-61
2022/11/14 15:59:42;;;;;;;16.85;10.52;;;10.00;76.10;;;;;;5027305;28;20028;-60
2022/11/14 16:02:21;;;;;;;18.15;10.48;;;10.00;75.90;;;;;;5026990;28;20018;-62
2022/11/14 16:04:49;;;;;;;16.88;10.95;;;10.10;75.80;;;;;;5027080;28;20481;-63
2022/11/14 16:07:15;;;;;;;18.33;10.65;;;10.10;75.60;;;;;;5027196;28;20101;-61
2022/11/14 16:09:41;;;;;;;18.52;9.30;;;10.10;75.70;;;;;;5027278;28;20021;-62
2022/11/14 16:12:07;;;;;;;19.25;9.75;;;10.20;75.50;;;;;;5026979;28;20089;-61
2022/11/14 16:14:33;;;;;;;16.38;9.00;;;10.10;75.90;;;;;;5027863;28;20400;-63
2022/11/14 16:16:59;;;;;;;17.52;10.60;;;10.10;75.90;;;;;;5028045;28;20101;-63
2022/11/14 16:19:24;;;;;;;20.25;11.50;;;10.20;75.90;;;;;;5029572;28;20018;-49
2022/11/14 16:21:50;;;;;;;18.80;11.30;;;10.20;75.70;;;;;;5026470;28;20096;-49
2022/11/14 16:24:21;;;;;;;18.40;11.05;;;10.20;75.90;;;;;;5026508;28;20057;-51
2022/11/14 16:26:47;;;;;;;16.73;10.10;;;10.20;75.80;;;;;;5026579;28;20026;-48
2022/11/14 16:29:13;;;;;;;17.98;10.50;;;10.20;75.90;;;;;;5026975;28;20022;-49
2022/11/14 16:31:38;;;;;;;19.80;10.55;;;10.20;76.30;;;;;;5027116;28;20030;-51
2022/11/14 16:34:05;;;;;;;17.73;10.25;;;10.20;75.80;;;;;;5026493;28;20382;-50
2022/11/14 16:36:31;;;;;;;18.73;10.45;;;10.20;75.90;;;;;;5028446;28;20112;-62
2022/11/14 16:39:00;;;;;;;20.02;11.40;;;10.10;75.90;;;;;;5009058;28;20053;-62
2022/11/14 16:41:26;;;;;;;17.35;10.25;;;10.10;76.10;;;;;;5026914;28;20493;-62
2022/11/14 16:43:59;;;;;;;17.38;10.00;;;10.10;76.00;;;;;;5030052;28;20116;-62
2022/11/14 16:46:25;;;;;;;14.18;8.68;;;10.10;76.10;;;;;;5030664;28;20057;-63
2022/11/14 16:48:50;;;;;;;17.65;9.25;;;10.20;76.00;;;;;;5026329;28;20048;-61
2022/11/14 16:51:16;;;;;;;16.95;10.60;;;10.10;76.00;;;;;;5026452;28;20096;-65
2022/11/14 16:53:42;;;;;;;13.80;9.65;;;10.10;76.40;;;;;;5026168;28;20050;-61
2022/11/14 16:56:11;;;;;;;17.08;10.52;;;10.00;76.40;;;;;;5026097;28;20034;-61
2022/11/14 16:58:39;;;;;;;17.40;10.82;;;10.00;76.60;;;;;;5027251;28;20025;-62
2022/11/14 17:01:05;;;;;;;23.15;10.93;;;10.00;76.40;;;;;;5027173;28;20114;-62
2022/11/14 17:03:31;;;;;;;16.17;9.82;;;10.00;76.50;;;;;;5027175;28;20034;-62
2022/11/14 17:05:57;;;;;;;19.80;12.02;;;9.90;76.60;;;;;;5014921;28;20412;-61
2022/11/14 17:08:23;;;;;;;18.70;11.63;;;9.90;76.80;;;;;;5014323;28;20026;-62
2022/11/14 17:10:48;;;;;;;21.35;11.98;;;9.80;77.20;;;;;;5013968;28;20037;-62
2022/11/14 17:13:16;;;;;;;17.77;11.07;;;9.90;77.20;;;;;;5015058;28;20026;-63
2022/11/14 17:15:42;;;;;;;19.50;12.05;;;9.90;76.90;;;;;;5014122;28;20026;-62
2022/11/14 17:18:08;;;;;;;16.95;10.25;;;10.00;77.00;;;;;;5013318;28;20037;-61
2022/11/14 17:20:36;;;;;;;17.20;10.52;;;10.00;76.80;;;;;;5011954;28;20022;-61
2022/11/14 17:23:01;;;;;;;15.57;9.88;;;10.00;76.90;;;;;;5013383;28;20026;-63
2022/11/14 17:25:29;;;;;;;18.65;11.80;;;10.00;77.00;;;;;;5012731;28;20578;-62
2022/11/14 17:27:54;;;;;;;15.57;9.98;;;10.00;77.10;;;;;;5013096;28;20030;-62
2022/11/14 17:30:20;;;;;;;18.30;10.48;;;9.90;77.30;;;;;;5012811;28;20030;-62
2022/11/14 17:32:46;;;;;;;17.77;10.35;;;9.80;77.90;;;;;;5013188;28;20026;-63
2022/11/14 17:35:11;;;;;;;22.63;10.90;;;9.90;77.70;;;;;;5012853;28;20045;-62
2022/11/14 17:37:37;;;;;;;16.65;10.23;;;9.90;77.60;;;;;;5012932;28;20269;-61
2022/11/14 17:40:04;;;;;;;18.05;10.02;;;9.90;77.50;;;;;;5012799;28;20036;-62
2022/11/14 17:42:30;;;;;;;19.02;11.02;;;9.80;77.90;;;;;;5012769;28;20033;-61
2022/11/14 17:44:59;;;;;;;17.30;11.05;;;9.80;78.20;;;;;;5012814;28;20474;-62
2022/11/14 17:47:27;;;;;;;18.95;11.82;;;9.90;78.10;;;;;;5013050;28;20470;-63
2022/11/14 17:49:52;;;;;;;19.58;12.05;;;10.00;77.90;;;;;;5012452;28;20500;-61
2022/11/14 17:52:18;;;;;;;22.13;11.57;;;9.90;78.10;;;;;;5012427;28;20026;-61
2022/11/14 17:54:44;;;;;;;27.30;14.05;;;9.90;78.20;;;;;;5013074;28;20042;-62
2022/11/14 17:57:12;;;;;;;28.60;15.88;;;9.80;78.40;;;;;;5015425;28;20034;-61
2022/11/14 17:59:37;;;;;;;24.98;14.07;;;9.80;78.60;;;;;;5010948;28;20050;-61
2022/11/14 18:02:03;;;;;;;32.22;16.85;;;9.90;78.60;;;;;;5012384;28;20045;-62
2022/11/14 18:04:30;;;;;;;22.05;13.90;;;9.90;78.80;;;;;;5012494;28;20104;-61
2022/11/14 18:06:56;;;;;;;19.80;12.82;;;9.80;78.70;;;;;;5012148;28;20026;-61
2022/11/14 18:09:22;;;;;;;15.65;10.15;;;9.80;78.60;;;;;;5012215;28;20079;-61
2022/11/14 18:11:47;;;;;;;18.98;11.25;;;9.80;78.70;;;;;;5012922;28;20042;-65
2022/11/14 18:14:13;;;;;;;17.52;11.35;;;9.70;79.10;;;;;;5010422;28;20026;-62
2022/11/14 18:16:39;;;;;;;21.92;11.43;;;9.80;79.00;;;;;;5010759;28;20022;-61
2022/11/14 18:19:05;;;;;;;17.65;11.00;;;9.80;78.70;;;;;;5011516;28;20178;-63
2022/11/14 18:21:30;;;;;;;15.43;8.85;;;9.80;79.00;;;;;;5012262;28;20079;-64
2022/11/14 18:23:58;;;;;;;17.63;10.77;;;9.80;79.20;;;;;;5012653;28;20431;-62
2022/11/14 18:26:26;;;;;;;18.40;11.00;;;9.70;79.40;;;;;;5011975;28;20032;-62
2022/11/14 18:28:57;;;;;;;21.33;11.45;;;9.70;79.40;;;;;;5012197;28;20466;-61
2022/11/14 18:31:23;;;;;;;18.30;9.27;;;9.70;79.70;;;;;;5012974;28;20029;-49
2022/11/14 18:33:48;;;;;;;22.83;11.55;;;9.60;79.70;;;;;;5010444;28;20046;-49
2022/11/14 18:36:14;;;;;;;18.17;11.70;;;9.60;79.90;;;;;;5012107;28;20071;-49
2022/11/14 18:38:40;;;;;;;19.50;11.18;;;9.70;80.00;;;;;;5015269;28;20075;-62
2022/11/14 18:41:08;;;;;;;20.10;10.98;;;9.70;79.60;;;;;;5010823;28;20424;-62
2022/11/14 18:43:34;;;;;;;40.22;14.02;;;9.60;79.90;;;;;;5011665;28;20094;-63
2022/11/14 18:46:09;;;;;;;15.15;10.35;;;9.60;79.90;;;;;;5011633;28;20050;-61
2022/11/14 18:48:38;;;;;;;17.05;9.80;;;9.70;79.80;;;;;;5011480;28;20026;-61
2022/11/14 18:51:06;;;;;;;16.23;9.05;;;9.70;79.60;;;;;;5011659;28;20022;-61
2022/11/14 18:53:33;;;;;;;14.90;9.60;;;9.70;79.50;;;;;;5011591;28;20073;-62
2022/11/14 18:56:08;;;;;;;17.90;10.68;;;9.60;79.90;;;;;;5010285;28;20026;-62
2022/11/14 18:58:34;;;;;;;20.65;11.30;;;9.60;79.90;;;;;;5011533;28;20449;-62
2022/11/14 19:01:07;;;;;;;17.30;10.90;;;9.60;79.90;;;;;;5011396;28;20454;-65
2022/11/14 19:03:33;;;;;;;17.05;11.60;;;9.60;79.90;;;;;;5011655;28;20354;-62
2022/11/14 19:06:02;;;;;;;19.65;11.88;;;9.60;79.90;;;;;;5011283;28;20029;-63
2022/11/14 19:08:28;;;;;;;19.58;11.75;;;9.70;79.60;;;;;;5009979;28;20034;-62
2022/11/14 19:11:00;;;;;;;19.00;11.70;;;9.80;79.50;;;;;;5011273;28;20022;-62
2022/11/14 19:13:26;;;;;;;18.90;11.27;;;9.70;79.50;;;;;;5011054;28;20030;-62
2022/11/14 19:15:51;;;;;;;15.75;10.02;;;9.60;79.70;;;;;;5011295;28;20166;-62
2022/11/14 19:18:17;;;;;;;20.60;9.98;;;9.50;79.90;;;;;;5011363;28;20575;-62
2022/11/14 19:20:45;;;;;;;17.50;11.32;;;9.50;80.20;;;;;;5011821;28;20026;-62
2022/11/14 19:23:11;;;;;;;17.55;9.85;;;9.50;80.00;;;;;;5011040;28;20030;-61
2022/11/14 19:25:36;;;;;;;16.80;10.82;;;9.50;80.00;;;;;;5011094;28;20478;-63
2022/11/14 19:28:02;;;;;;;17.83;11.07;;;9.60;79.90;;;;;;5010902;28;20026;-62
2022/11/14 19:30:27;;;;;;;18.45;10.55;;;9.60;79.70;;;;;;5010929;28;20504;-61
2022/11/14 19:32:53;;;;;;;16.45;10.18;;;9.60;79.70;;;;;;5011007;28;20029;-62
2022/11/14 19:35:19;;;;;;;16.27;10.15;;;9.50;80.00;;;;;;5010796;28;20474;-61
2022/11/14 19:37:44;;;;;;;15.98;10.50;;;9.60;79.60;;;;;;5010800;28;20030;-62
2022/11/14 19:40:11;;;;;;;16.88;10.88;;;9.60;79.60;;;;;;5010683;28;20075;-62
2022/11/14 19:42:36;;;;;;;20.45;10.77;;;9.50;79.50;;;;;;5011032;28;20026;-62
2022/11/14 19:45:02;;;;;;;14.35;9.73;;;9.50;79.50;;;;;;5009350;28;20031;-61
2022/11/14 19:47:27;;;;;;;14.73;10.15;;;9.50;79.20;;;;;;5010756;28;20028;-62
2022/11/14 19:49:53;;;;;;;14.75;9.68;;;9.40;79.40;;;;;;5010507;28;20054;-62
2022/11/14 19:52:19;;;;;;;16.15;10.43;;;9.40;79.30;;;;;;5010654;28;20414;-62
2022/11/14 19:54:47;;;;;;;14.90;9.90;;;9.40;79.30;;;;;;5010591;28;20099;-61
2022/11/14 19:57:13;;;;;;;15.82;9.32;;;9.40;79.00;;;;;;5009388;28;20022;-63
2022/11/14 19:59:39;;;;;;;15.15;9.73;;;9.30;79.10;;;;;;5009463;28;20362;-61
2022/11/14 20:02:05;;;;;;;13.48;8.70;;;9.40;78.70;;;;;;5010552;28;20040;-61
2022/11/14 20:04:30;;;;;;;14.77;9.32;;;9.30;78.70;;;;;;5011118;28;20055;-61
2022/11/14 20:06:56;;;;;;;15.65;9.32;;;9.20;79.00;;;;;;5010985;28;20029;-62
2022/11/14 20:09:22;;;;;;;18.27;11.48;;;9.10;79.30;;;;;;5010813;28;20378;-63
2022/11/14 20:11:47;;;;;;;15.43;9.32;;;9.00;79.70;;;;;;5010429;28;20026;-60
2022/11/14 20:14:13;;;;;;;17.88;8.90;;;9.00;79.80;;;;;;5010446;28;20030;-62
2022/11/14 20:16:39;;;;;;;15.25;9.50;;;8.80;80.10;;;;;;5009532;28;20109;-61
2022/11/14 20:19:04;;;;;;;16.95;10.25;;;8.80;80.50;;;;;;5010902;28;20022;-62
2022/11/14 20:21:32;;;;;;;17.02;10.40;;;8.70;80.70;;;;;;5008974;28;20482;-61
2022/11/14 20:23:58;;;;;;;16.50;10.20;;;8.80;81.00;;;;;;5010378;28;20052;-62
2022/11/14 20:26:24;;;;;;;17.83;10.65;;;8.70;80.80;;;;;;5008935;28;20030;-61
2022/11/14 20:28:52;;;;;;;13.00;9.13;;;8.60;81.20;;;;;;5008835;28;20030;-61
2022/11/14 20:31:24;;;;;;;13.50;9.13;;;8.60;81.30;;;;;;5010278;28;20037;-61
2022/11/14 20:33:52;;;;;;;14.95;10.05;;;8.50;81.50;;;;;;5009993;28;20079;-61
2022/11/14 20:36:27;;;;;;;15.13;9.27;;;8.40;81.80;;;;;;5010193;28;20026;-61
2022/11/14 20:38:53;;;;;;;19.08;10.20;;;8.40;81.70;;;;;;5010358;28;20529;-61
2022/11/14 20:41:20;;;;;;;16.00;9.18;;;8.30;82.10;;;;;;5013357;28;20116;-62
2022/11/14 20:43:46;;;;;;;17.60;11.50;;;8.30;82.20;;;;;;5013445;28;20030;-61
2022/11/14 20:46:14;;;;;;;16.35;10.00;;;8.30;82.30;;;;;;5013495;28;20083;-61
2022/11/14 20:48:41;;;;;;;21.30;11.43;;;8.20;82.60;;;;;;5013577;28;20511;-61
2022/11/14 20:51:11;;;;;;;15.35;9.73;;;8.10;82.80;;;;;;5013184;28;20022;-61
2022/11/14 20:53:37;;;;;;;18.55;11.35;;;8.10;83.10;;;;;;5013026;28;20042;-63
2022/11/14 20:56:02;;;;;;;16.35;11.15;;;7.90;83.40;;;;;;5013538;28;20026;-62
2022/11/14 20:58:29;;;;;;;15.65;9.98;;;8.00;83.30;;;;;;5013147;28;20091;-62
2022/11/14 21:00:55;;;;;;;17.63;9.73;;;7.90;83.80;;;;;;5013414;28;20127;-62
2022/11/14 21:03:21;;;;;;;21.17;11.60;;;8.00;83.90;;;;;;5013230;28;20108;-61
2022/11/14 21:05:46;;;;;;;18.35;11.52;;;8.20;83.50;;;;;;5013100;28;20125;-63
2022/11/14 21:08:13;;;;;;;19.17;10.90;;;8.30;82.80;;;;;;5013280;28;20186;-62
2022/11/14 21:10:46;;;;;;;19.55;10.32;;;8.30;82.70;;;;;;5013357;28;20485;-62
2022/11/14 21:16:08;;;;;;;14.50;9.48;;;8.60;81.80;;;;;;5013551;28;20492;-62
2022/11/14 21:18:34;;;;;;;14.13;9.02;;;8.60;81.20;;;;;;5012947;28;20021;-62
2022/11/14 21:21:09;;;;;;;17.08;9.73;;;8.80;81.20;;;;;;5012986;28;20029;-61
2022/11/14 21:23:35;;;;;;;17.38;11.13;;;8.80;80.80;;;;;;5013195;28;20034;-62
2022/11/14 21:26:16;;;;;;;15.05;10.00;;;8.80;80.80;;;;;;5011662;28;20424;-62
2022/11/14 21:28:43;;;;;;;;;;;8.80;80.70;;;;;;5013342;28;20477;-62
2022/11/14 21:31:30;;;;;;;17.45;10.73;;;8.60;80.80;;;;;;5013184;28;20368;-63
2022/11/14 21:33:58;;;;;;;15.43;10.50;;;8.50;81.70;;;;;;5013042;28;20071;-62
2022/11/14 21:36:24;;;;;;;16.13;9.77;;;8.30;82.00;;;;;;5013734;28;20095;-60
2022/11/14 21:38:50;;;;;;;15.05;9.88;;;8.20;82.30;;;;;;5013723;28;20030;-61
2022/11/14 21:41:19;;;;;;;20.02;10.57;;;8.30;82.50;;;;;;5012240;28;20022;-61
2022/11/14 21:43:46;;;;;;;16.35;9.95;;;8.40;82.50;;;;;;5014920;28;20018;-63
2022/11/14 21:46:12;;;;;;;16.88;10.13;;;8.50;81.80;;;;;;5014060;28;20030;-62
2022/11/14 21:48:40;;;;;;;16.25;10.15;;;8.50;81.80;;;;;;5011780;28;20061;-62
2022/11/14 21:51:17;;;;;;;16.05;9.88;;;8.50;81.70;;;;;;5012746;28;20152;-63
2022/11/14 21:53:43;;;;;;;16.00;10.05;;;8.60;81.70;;;;;;5012268;28;20050;-61
2022/11/14 21:56:14;;;;;;;17.40;9.98;;;8.70;81.60;;;;;;5011069;28;20025;-62
2022/11/14 21:58:40;;;;;;;15.45;8.95;;;8.70;81.50;;;;;;5012339;28;20018;-64
2022/11/14 22:01:07;;;;;;;15.38;9.50;;;8.80;80.80;;;;;;5012315;28;20071;-61